Time;durP1;ratioP1;P1;durP2;ratioP2;P2;SDS_P1;SDS_P2;PMS_P1;PMS_P2;Temp;Humidity;BMP_temperature;BMP_pressure;BME280_temperature;BME280_humidity;BME280_pressure;Samples;Min_cycle;Max_cycle;Signal;HPM_P1;HPM_P2
2022/04/09 00:05:05;;;;;;;3.40;1.80;;;;;;;;;;12306981;28;20507;-76
2022/04/09 00:11:07;;;;;;;7.57;4.05;;;;;;;;;;12288203;28;20054;-76
2022/04/09 00:17:09;;;;;;;4.78;3.50;;;;;;;;;;12288754;28;20382;-77
2022/04/09 00:23:12;;;;;;;5.40;3.28;;;;;;;;;;12305783;28;20045;-76
2022/04/09 00:29:14;;;;;;;5.20;3.50;;;;;;;;;;12305229;28;20061;-76
2022/04/09 00:35:16;;;;;;;3.87;2.67;;;;;;;;;;12305540;28;20050;-77
2022/04/09 00:41:18;;;;;;;4.30;2.70;;;;;;;;;;12298698;28;20097;-76
2022/04/09 00:47:20;;;;;;;2.93;2.17;;;;;;;;;;12271142;28;20393;-76
2022/04/09 00:53:24;;;;;;;4.15;2.20;;;;;;;;;;12303453;28;20047;-77
2022/04/09 00:59:26;;;;;;;2.30;2.08;;;;;;;;;;12303588;28;20057;-76
2022/04/09 01:05:28;;;;;;;;;;;;;;;;;;12304476;28;20606;-76
2022/04/09 01:11:30;;;;;;;1.92;1.25;;;;;;;;;;12286364;28;19926;-76
2022/04/09 01:17:32;;;;;;;2.03;1.30;;;;;;;;;;12286084;28;20481;-76
2022/04/09 01:23:34;;;;;;;3.43;1.30;;;;;;;;;;12270085;29;20316;-76
2022/04/09 01:29:37;;;;;;;2.50;1.08;;;;;;;;;;12298342;28;20134;-76
2022/04/09 01:35:40;;;;;;;0.90;0.80;;;;;;;;;;12269929;28;20043;-76
2022/04/09 01:41:42;;;;;;;;;;;;;;;;;;12286902;28;20062;-76
2022/04/09 01:47:44;;;;;;;1.08;0.80;;;;;;;;;;12284917;28;20331;-76
2022/04/09 01:53:46;;;;;;;0.87;0.73;;;;;;;;;;12268515;29;20416;-76
2022/04/09 01:59:48;;;;;;;0.63;0.63;;;;;;;;;;12301197;28;20035;-76
2022/04/09 02:05:50;;;;;;;2.03;0.60;;;;;;;;;;12268442;28;20505;-76
2022/04/09 02:11:52;;;;;;;1.63;1.00;;;;;;;;;;12283569;28;20050;-76
2022/04/09 02:17:54;;;;;;;2.37;0.70;;;;;;;;;;12284499;28;20046;-76
2022/04/09 02:23:56;;;;;;;2.20;0.95;;;;;;;;;;12283600;29;20035;-76
2022/04/09 02:29:58;;;;;;;0.75;0.55;;;;;;;;;;12300518;28;20046;-76
2022/04/09 02:36:01;;;;;;;1.15;0.70;;;;;;;;;;12301396;28;20039;-76
2022/04/09 02:42:03;;;;;;;1.15;0.70;;;;;;;;;;12283071;28;20051;-76
2022/04/09 02:48:05;;;;;;;1.17;0.57;;;;;;;;;;12284099;28;20035;-76
2022/04/09 02:54:15;;;;;;;0.88;0.60;;;;;;;;;;12310466;28;20047;-76
2022/04/09 03:00:18;;;;;;;2.92;0.85;;;;;;;;;;12282798;28;20051;-76
2022/04/09 03:06:20;;;;;;;1.88;0.73;;;;;;;;;;12283145;28;20039;-76
2022/04/09 03:12:22;;;;;;;0.68;0.68;;;;;;;;;;12299741;28;20040;-76
2022/04/09 03:18:24;;;;;;;0.93;0.60;;;;;;;;;;12282795;29;20039;-76
2022/04/09 03:24:26;;;;;;;;;;;;;;;;;;12285079;28;20043;-76
2022/04/09 03:30:28;;;;;;;0.50;0.50;;;;;;;;;;12290435;28;19918;-76
2022/04/09 03:36:43;;;;;;;3.53;1.50;;;;;;;;;;12292349;28;20496;-76
2022/04/09 03:42:46;;;;;;;4.07;1.52;;;;;;;;;;12291020;28;20509;-76
2022/04/09 03:48:49;;;;;;;3.80;1.90;;;;;;;;;;12318519;28;20050;-76
2022/04/09 03:54:52;;;;;;;2.67;1.40;;;;;;;;;;12273734;28;20050;-76
2022/04/09 04:00:54;;;;;;;3.40;2.10;;;;;;;;;;12289244;28;20035;-76
2022/04/09 04:06:59;;;;;;;3.90;2.42;;;;;;;;;;12273691;28;20489;-76
2022/04/09 04:13:01;;;;;;;2.77;1.73;;;;;;;;;;12273206;28;20046;-74
2022/04/09 04:19:09;;;;;;;2.70;1.70;;;;;;;;;;12289947;29;20042;-77
2022/04/09 04:25:11;;;;;;;2.33;1.73;;;;;;;;;;12298723;28;20031;-79
2022/04/09 04:31:16;;;;;;;3.33;1.83;;;;;;;;;;12287173;28;20043;-79
2022/04/09 04:37:19;;;;;;;2.72;1.50;;;;;;;;;;12299242;28;20043;-79
2022/04/09 04:43:21;;;;;;;1.73;1.43;;;;;;;;;;12286749;29;20404;-79
2022/04/09 04:49:23;;;;;;;3.33;2.60;;;;;;;;;;12298871;28;20640;-79
2022/04/09 04:55:30;;;;;;;2.78;1.95;;;;;;;;;;12271948;28;20512;-79
2022/04/09 05:01:34;;;;;;;3.55;2.45;;;;;;;;;;12288322;28;20042;-79
2022/04/09 05:07:46;;;;;;;3.55;2.40;;;;;;;;;;12271312;28;20404;-80
2022/04/09 05:13:48;;;;;;;3.75;2.00;;;;;;;;;;12285539;29;20055;-78
2022/04/09 05:19:50;;;;;;;3.50;2.20;;;;;;;;;;12302892;28;20032;-78
2022/04/09 05:25:52;;;;;;;2.17;1.90;;;;;;;;;;12285279;28;20440;-79
2022/04/09 05:31:55;;;;;;;2.83;2.50;;;;;;;;;;12285312;28;20043;-78
2022/04/09 05:37:57;;;;;;;1.23;0.93;;;;;;;;;;12317339;28;20051;-77
2022/04/09 05:44:04;;;;;;;3.20;2.00;;;;;;;;;;12284350;28;20397;-78
2022/04/09 05:50:08;;;;;;;3.65;2.15;;;;;;;;;;12295061;28;20031;-78
2022/04/09 05:56:10;;;;;;;2.25;2.05;;;;;;;;;;12268532;28;20504;-77
2022/04/09 06:02:16;;;;;;;3.40;2.35;;;;;;;;;;12283779;28;20070;-77
2022/04/09 06:08:18;;;;;;;5.95;4.45;;;;;;;;;;12268029;29;20039;-76
2022/04/09 06:14:21;;;;;;;4.95;3.50;;;;;;;;;;12283520;28;20047;-76
2022/04/09 06:20:23;;;;;;;4.32;3.25;;;;;;;;;;12283771;28;20028;-76
2022/04/09 06:26:25;;;;;;;5.35;3.28;;;;;;;;;;12295483;28;20416;-76
2022/04/09 06:32:27;;;;;;;4.93;4.25;;;;;;;;;;12267567;28;20501;-76
2022/04/09 06:38:31;;;;;;;9.87;4.93;;;;;;;;;;12283139;29;20432;-76
2022/04/09 06:44:34;;;;;;;3.65;3.05;;;;;;;;;;12282785;28;20500;-75
2022/04/09 06:50:46;;;;;;;5.15;3.35;;;;;;;;;;12282824;28;20047;-75
2022/04/09 06:56:48;;;;;;;3.97;2.50;;;;;;;;;;12286929;28;20050;-76
2022/04/09 07:02:52;;;;;;;3.13;1.80;;;;;;;;;;12293495;28;20043;-76
2022/04/09 07:08:55;;;;;;;3.72;2.40;;;;;;;;;;12291984;29;20075;-76
2022/04/09 07:14:57;;;;;;;5.53;2.00;;;;;;;;;;12308039;28;20039;-77
2022/04/09 07:20:59;;;;;;;2.13;1.60;;;;;;;;;;12308012;28;20031;-76
2022/04/09 07:27:00;;;;;;;3.00;1.80;;;;;;;;;;12290614;28;20027;-76
2022/04/09 07:33:02;;;;;;;3.92;1.90;;;;;;;;;;12307500;28;20039;-77
2022/04/09 07:39:06;;;;;;;1.93;1.80;;;;;;;;;;12322103;28;20055;-76
2022/04/09 07:45:09;;;;;;;2.65;1.20;;;;;;;;;;12309769;28;20347;-79
2022/04/09 07:51:10;;;;;;;3.28;2.13;;;;;;;;;;12273395;28;20489;-79
2022/04/09 07:57:12;;;;;;;3.38;1.70;;;;;;;;;;12289537;28;20488;-76
2022/04/09 08:03:14;;;;;;;3.20;1.80;;;;;;;;;;12306360;28;20395;-76
2022/04/09 08:09:16;;;;;;;6.73;2.00;;;;;;;;;;12305397;28;20047;-76
2022/04/09 08:15:18;;;;;;;;;;;;;;;;;;12303632;28;20043;-76
2022/04/09 08:21:20;;;;;;;3.42;1.40;;;;;;;;;;12303285;28;20011;-76
2022/04/09 08:27:22;;;;;;;5.10;2.50;;;;;;;;;;12302882;28;20042;-76
2022/04/09 08:33:24;;;;;;;3.23;1.43;;;;;;;;;;12315968;28;20031;-77
2022/04/09 08:39:25;;;;;;;3.77;1.47;;;;;;;;;;12290684;28;20064;-76
2022/04/09 08:45:27;;;;;;;2.87;1.50;;;;;;;;;;12287349;28;20058;-77
2022/04/09 08:51:28;;;;;;;4.95;2.08;;;;;;;;;;12303749;28;20039;-77
2022/04/09 08:57:30;;;;;;;3.70;2.13;;;;;;;;;;12304327;28;20027;-77
2022/04/09 09:03:35;;;;;;;5.33;1.70;;;;;;;;;;12271323;29;20043;-77
2022/04/09 09:09:37;;;;;;;3.58;2.15;;;;;;;;;;12308107;28;20042;-77
2022/04/09 09:15:52;;;;;;;4.77;1.80;;;;;;;;;;12293066;28;20043;-76
2022/04/09 09:21:59;;;;;;;7.03;2.47;;;;;;;;;;12285126;28;20278;-76
2022/04/09 09:28:00;;;;;;;3.80;1.80;;;;;;;;;;12302461;28;20042;-76
2022/04/09 09:34:07;;;;;;;2.70;1.37;;;;;;;;;;12285211;29;20050;-76
2022/04/09 09:40:09;;;;;;;4.32;2.08;;;;;;;;;;12285029;28;20066;-77
2022/04/09 09:46:11;;;;;;;4.20;2.17;;;;;;;;;;12301532;28;20042;-76
2022/04/09 09:52:13;;;;;;;3.13;1.77;;;;;;;;;;12301563;28;20046;-77
2022/04/09 09:58:18;;;;;;;6.83;2.40;;;;;;;;;;12284038;29;20031;-76
2022/04/09 10:04:19;;;;;;;4.20;2.08;;;;;;;;;;12301323;28;20039;-77
2022/04/09 10:10:24;;;;;;;2.73;1.50;;;;;;;;;;12284365;28;20043;-76
2022/04/09 10:16:27;;;;;;;3.92;2.10;;;;;;;;;;12267776;28;20519;-76
2022/04/09 10:22:42;;;;;;;4.05;2.55;;;;;;;;;;12284144;28;20539;-77
2022/04/09 10:28:47;;;;;;;6.20;2.83;;;;;;;;;;12284410;28;20039;-77
2022/04/09 10:34:50;;;;;;;3.22;1.58;;;;;;;;;;12322614;28;20043;-76
2022/04/09 10:40:55;;;;;;;4.65;2.33;;;;;;;;;;12292171;28;20050;-76
2022/04/09 10:47:00;;;;;;;6.05;2.92;;;;;;;;;;12310766;28;20031;-76
2022/04/09 10:53:03;;;;;;;5.97;3.08;;;;;;;;;;12304330;28;20050;-76
2022/04/09 10:59:06;;;;;;;6.65;2.90;;;;;;;;;;12308684;28;20492;-77
2022/04/09 11:05:21;;;;;;;4.07;2.03;;;;;;;;;;12306909;28;20035;-77
2022/04/09 11:11:26;;;;;;;6.65;2.60;;;;;;;;;;12306205;28;20043;-76
2022/04/09 11:17:29;;;;;;;5.50;3.10;;;;;;;;;;12288962;28;20054;-76
2022/04/09 11:23:30;;;;;;;6.20;2.83;;;;;;;;;;12290982;29;20035;-76
2022/04/09 11:29:33;;;;;;;4.27;2.20;;;;;;;;;;12292063;28;20039;-76
2022/04/09 11:35:35;;;;;;;5.28;2.00;;;;;;;;;;12308112;28;20062;-75
2022/04/09 11:41:37;;;;;;;4.55;2.10;;;;;;;;;;12306797;28;20050;-75
2022/04/09 11:47:43;;;;;;;5.10;2.08;;;;;;;;;;12308148;28;20384;-77
2022/04/09 11:53:45;;;;;;;6.00;1.10;;;;;;;;;;12306602;28;20070;-76
2022/04/09 11:59:53;;;;;;;2.67;0.50;;;;;;;;;;12289531;28;20035;-76
2022/04/09 12:05:55;;;;;;;3.78;0.52;;;;;;;;;;12274945;28;20282;-76
2022/04/09 12:12:03;;;;;;;5.10;2.08;;;;;;;;;;12286855;28;20058;-76
2022/04/09 12:18:05;;;;;;;0.60;0.60;;;;;;;;;;12286252;28;20031;-76
2022/04/09 12:24:07;;;;;;;2.30;0.60;;;;;;;;;;12303147;28;20035;-77
2022/04/09 12:30:09;;;;;;;1.45;0.40;;;;;;;;;;12286848;28;20297;-77
2022/04/09 12:36:32;;;;;;;1.57;0.40;;;;;;;;;;12305584;28;20039;-76
2022/04/09 12:42:33;;;;;;;3.00;0.57;;;;;;;;;;12272814;28;20055;-76
2022/04/09 12:48:37;;;;;;;1.75;0.60;;;;;;;;;;12304309;28;20039;-76
2022/04/09 12:54:39;;;;;;;1.45;0.40;;;;;;;;;;12286352;28;20047;-76
2022/04/09 13:00:41;;;;;;;4.68;1.10;;;;;;;;;;12304010;28;20626;-77
2022/04/09 13:07:01;;;;;;;3.05;0.80;;;;;;;;;;12293632;28;20388;-76
2022/04/09 13:13:04;;;;;;;3.28;0.93;;;;;;;;;;12303206;28;20043;-76
2022/04/09 13:19:06;;;;;;;;;;;;;;;;;;12303298;28;20035;-77
2022/04/09 13:25:08;;;;;;;1.05;0.80;;;;;;;;;;12302640;28;20384;-75
2022/04/09 13:31:10;;;;;;;1.47;1.30;;;;;;;;;;12285150;28;20031;-75
2022/04/09 13:37:22;;;;;;;1.58;1.08;;;;;;;;;;12286096;28;20050;-76
2022/04/09 13:43:24;;;;;;;2.30;1.17;;;;;;;;;;12301726;28;20034;-76
2022/04/09 13:49:26;;;;;;;2.42;1.02;;;;;;;;;;12284118;28;20042;-76
2022/04/09 13:55:28;;;;;;;1.27;0.80;;;;;;;;;;12268376;28;20050;-76
2022/04/09 14:01:30;;;;;;;1.42;1.00;;;;;;;;;;12300918;28;20042;-76
2022/04/09 14:07:32;;;;;;;1.80;0.90;;;;;;;;;;12300778;28;20039;-76
2022/04/09 14:13:34;;;;;;;1.27;0.80;;;;;;;;;;12301047;28;20046;-76
2022/04/09 14:19:36;;;;;;;1.63;0.70;;;;;;;;;;12300612;28;20400;-76
2022/04/09 14:25:37;;;;;;;1.13;1.02;;;;;;;;;;12300248;28;20504;-76
2022/04/09 14:31:39;;;;;;;1.38;1.27;;;;;;;;;;12300495;28;20052;-76
2022/04/09 14:37:41;;;;;;;1.92;1.75;;;;;;;;;;12283004;28;20500;-76
2022/04/09 14:43:43;;;;;;;0.80;0.80;;;;;;;;;;12297793;28;20035;-76
2022/04/09 14:49:46;;;;;;;1.23;0.90;;;;;;;;;;12298150;28;20031;-76
2022/04/09 14:55:47;;;;;;;;;;;;;;;;;;12278291;28;20047;-76
2022/04/09 15:01:49;;;;;;;2.25;2.03;;;;;;;;;;12298053;28;19921;-76
2022/04/09 15:07:51;;;;;;;1.13;1.10;;;;;;;;;;12298425;28;20066;-76
2022/04/09 15:13:53;;;;;;;1.73;1.00;;;;;;;;;;12296845;28;20043;-76
2022/04/09 15:19:55;;;;;;;1.88;0.70;;;;;;;;;;12303660;28;20039;-76
2022/04/09 15:25:57;;;;;;;0.60;0.60;;;;;;;;;;12291049;28;20408;-76
2022/04/09 15:31:59;;;;;;;1.20;1.10;;;;;;;;;;12306239;28;20043;-76
2022/04/09 15:38:00;;;;;;;0.50;0.50;;;;;;;;;;12289889;28;20051;-76
2022/04/09 15:44:06;;;;;;;0.50;0.50;;;;;;;;;;12290190;29;20048;-76
2022/04/09 15:50:08;;;;;;;0.88;0.60;;;;;;;;;;12319843;28;20043;-76
2022/04/09 15:56:10;;;;;;;1.30;1.00;;;;;;;;;;12306366;28;20043;-76
2022/04/09 16:02:13;;;;;;;0.70;0.60;;;;;;;;;;12306416;28;20027;-76
2022/04/09 16:08:14;;;;;;;0.88;0.47;;;;;;;;;;12307669;28;20035;-76
2022/04/09 16:14:16;;;;;;;0.88;0.88;;;;;;;;;;12272666;28;20497;-76
2022/04/09 16:20:18;;;;;;;0.65;0.65;;;;;;;;;;12301804;28;20039;-76
2022/04/09 16:26:23;;;;;;;1.25;0.50;;;;;;;;;;12288775;28;20035;-76
2022/04/09 16:32:24;;;;;;;0.75;0.75;;;;;;;;;;12320100;28;20477;-76
2022/04/09 16:38:26;;;;;;;1.42;1.15;;;;;;;;;;12304343;28;20070;-76
2022/04/09 16:44:28;;;;;;;2.72;1.70;;;;;;;;;;12304923;28;20218;-76
2022/04/09 16:50:29;;;;;;;2.22;2.03;;;;;;;;;;12287347;28;20035;-76
2022/04/09 16:56:31;;;;;;;1.67;1.58;;;;;;;;;;12304609;28;20047;-76
2022/04/09 17:02:33;;;;;;;1.15;1.15;;;;;;;;;;12287161;28;20385;-76
2022/04/09 17:08:35;;;;;;;0.93;0.93;;;;;;;;;;12303668;28;20043;-76
2022/04/09 17:14:36;;;;;;;1.60;1.50;;;;;;;;;;12303563;28;20039;-77
2022/04/09 17:20:38;;;;;;;1.02;1.02;;;;;;;;;;12303014;28;20035;-77
2022/04/09 17:26:40;;;;;;;0.98;0.82;;;;;;;;;;12302620;28;20499;-77
2022/04/09 17:32:42;;;;;;;0.70;0.70;;;;;;;;;;12302887;28;20408;-76
2022/04/09 17:38:43;;;;;;;2.85;2.50;;;;;;;;;;12284544;28;20506;-77
2022/04/09 17:44:45;;;;;;;1.40;1.30;;;;;;;;;;12285196;28;20494;-77
2022/04/09 17:50:47;;;;;;;2.05;1.40;;;;;;;;;;12297054;28;20047;-75
2022/04/09 17:56:50;;;;;;;3.95;3.10;;;;;;;;;;12284435;28;20663;-75
2022/04/09 18:02:51;;;;;;;;;;;;;;;;;;12284637;28;20039;-77
2022/04/09 18:08:53;;;;;;;1.23;1.13;;;;;;;;;;12283848;29;19910;-76
2022/04/09 18:14:55;;;;;;;1.15;1.05;;;;;;;;;;12284223;28;20055;-75
2022/04/09 18:20:57;;;;;;;1.60;1.50;;;;;;;;;;12301068;28;20410;-75
2022/04/09 18:26:58;;;;;;;1.45;0.70;;;;;;;;;;12313712;28;20047;-75
2022/04/09 18:33:00;;;;;;;0.88;0.80;;;;;;;;;;12300350;28;20051;-76
2022/04/09 18:39:02;;;;;;;1.92;1.80;;;;;;;;;;12300560;28;20043;-75
2022/04/09 18:45:06;;;;;;;1.60;1.50;;;;;;;;;;12300782;28;20050;-76
2022/04/09 18:51:09;;;;;;;1.20;1.10;;;;;;;;;;12268684;28;20035;-76
2022/04/09 18:57:10;;;;;;;1.27;1.17;;;;;;;;;;12309289;28;20363;-75
2022/04/09 19:03:12;;;;;;;0.95;0.88;;;;;;;;;;12306127;28;20039;-76
2022/04/09 19:09:14;;;;;;;1.15;1.05;;;;;;;;;;12308506;28;20035;-76
2022/04/09 19:15:16;;;;;;;0.80;0.80;;;;;;;;;;12307961;28;20046;-75
2022/04/09 19:21:19;;;;;;;1.42;1.00;;;;;;;;;;12307915;28;20038;-77
2022/04/09 19:27:21;;;;;;;0.75;0.70;;;;;;;;;;12291026;28;20055;-76
2022/04/09 19:33:22;;;;;;;0.50;0.50;;;;;;;;;;12307830;28;20385;-76
2022/04/09 19:39:25;;;;;;;0.50;0.50;;;;;;;;;;12290277;28;20047;-76
2022/04/09 19:45:27;;;;;;;0.90;0.68;;;;;;;;;;12307418;28;20039;-76
2022/04/09 19:51:29;;;;;;;0.83;0.83;;;;;;;;;;12289804;28;20421;-76
2022/04/09 19:57:31;;;;;;;1.05;0.88;;;;;;;;;;12289664;28;20039;-75
2022/04/09 20:03:33;;;;;;;1.15;1.10;;;;;;;;;;12306551;28;20493;-75
2022/04/09 20:09:35;;;;;;;2.95;2.75;;;;;;;;;;12306412;28;20338;-76
2022/04/09 20:15:37;;;;;;;5.35;4.13;;;;;;;;;;12306120;28;20046;-76
2022/04/09 20:21:40;;;;;;;2.60;2.40;;;;;;;;;;12272387;28;20046;-75
2022/04/09 20:27:41;;;;;;;1.67;1.58;;;;;;;;;;12287867;28;20031;-75
2022/04/09 20:33:43;;;;;;;0.98;0.98;;;;;;;;;;12305293;28;20062;-75
2022/04/09 20:39:45;;;;;;;1.02;0.98;;;;;;;;;;12308516;28;20509;-75
2022/04/09 20:45:46;;;;;;;1.10;1.00;;;;;;;;;;12297039;28;20227;-75
2022/04/09 20:51:48;;;;;;;1.10;1.00;;;;;;;;;;12287397;28;20038;-74
2022/04/09 20:57:56;;;;;;;1.27;1.20;;;;;;;;;;12303800;28;20050;-75
2022/04/09 21:03:58;;;;;;;1.40;1.30;;;;;;;;;;12304741;28;20035;-75
2022/04/09 21:10:01;;;;;;;1.10;1.00;;;;;;;;;;12286423;28;20207;-75
2022/04/09 21:16:04;;;;;;;0.98;0.98;;;;;;;;;;12303165;28;20043;-75
2022/04/09 21:22:06;;;;;;;1.45;1.35;;;;;;;;;;12303183;28;20042;-75
2022/04/09 21:28:08;;;;;;;1.65;1.55;;;;;;;;;;12300650;28;20039;-75
2022/04/09 21:34:10;;;;;;;1.77;1.67;;;;;;;;;;12299792;28;20043;-76
2022/04/09 21:40:12;;;;;;;1.70;1.52;;;;;;;;;;12281359;28;20298;-75
2022/04/09 21:46:14;;;;;;;2.03;1.92;;;;;;;;;;12298231;28;20499;-76
2022/04/09 21:52:16;;;;;;;1.80;1.70;;;;;;;;;;12297849;28;20050;-76
2022/04/09 21:58:18;;;;;;;2.70;2.00;;;;;;;;;;12281108;29;20027;-75
2022/04/09 22:04:19;;;;;;;2.10;2.00;;;;;;;;;;12297855;28;20039;-75
2022/04/09 22:10:21;;;;;;;2.38;2.28;;;;;;;;;;12280076;28;20044;-75
2022/04/09 22:16:23;;;;;;;2.53;2.33;;;;;;;;;;12296741;28;20040;-75
2022/04/09 22:22:25;;;;;;;2.13;1.95;;;;;;;;;;12297086;28;20039;-76
2022/04/09 22:28:26;;;;;;;2.30;2.20;;;;;;;;;;12304167;28;20035;-76
2022/04/09 22:34:29;;;;;;;2.50;2.30;;;;;;;;;;12306947;28;20047;-76
2022/04/09 22:40:30;;;;;;;2.50;2.40;;;;;;;;;;12307619;28;20059;-76
2022/04/09 22:46:32;;;;;;;2.70;2.50;;;;;;;;;;12306509;28;20032;-76
2022/04/09 22:52:34;;;;;;;3.47;3.17;;;;;;;;;;12306499;28;20039;-76
2022/04/09 22:58:36;;;;;;;2.97;2.77;;;;;;;;;;12317689;28;20043;-77
2022/04/09 23:04:37;;;;;;;2.63;2.42;;;;;;;;;;12288897;28;20039;-76
2022/04/09 23:10:39;;;;;;;2.20;2.10;;;;;;;;;;12317266;28;20039;-76
2022/04/09 23:16:41;;;;;;;2.78;2.58;;;;;;;;;;12305025;28;20047;-77
2022/04/09 23:22:43;;;;;;;3.05;2.85;;;;;;;;;;12304986;28;20031;-76
2022/04/09 23:28:44;;;;;;;2.30;2.20;;;;;;;;;;12305118;28;20040;-76
2022/04/09 23:34:46;;;;;;;2.00;1.90;;;;;;;;;;12295617;28;20051;-76
2022/04/09 23:40:48;;;;;;;1.55;1.45;;;;;;;;;;12286664;28;20207;-76
2022/04/09 23:46:49;;;;;;;2.95;2.75;;;;;;;;;;12303733;28;20050;-75
2022/04/09 23:52:51;;;;;;;3.03;2.83;;;;;;;;;;12303229;28;20061;-74
2022/04/09 23:58:53;;;;;;;2.38;2.28;;;;;;;;;;12303112;28;20501;-75
